createdAt,value
2022-08-30T00:04:02.389Z,100811.22
2022-08-30T00:08:59.819Z,100801.06
2022-08-30T00:13:57.408Z,100803.19
2022-08-30T00:18:54.935Z,100805.28
2022-08-30T00:23:52.370Z,100811.94
2022-08-30T00:28:48.730Z,100807.56
2022-08-30T00:33:45.136Z,100809.94
2022-08-30T00:38:41.643Z,100809.09
2022-08-30T00:43:38.041Z,100800.06
2022-08-30T00:48:37.573Z,100807.69
2022-08-30T00:53:42.070Z,100802.03
2022-08-30T00:58:42.413Z,100806.25
2022-08-30T01:03:40.212Z,100802.16
2022-08-30T01:08:36.921Z,100805.09
2022-08-30T01:13:35.247Z,100808.06
2022-08-30T01:18:32.098Z,100813.66
2022-08-30T01:23:30.035Z,100813.38
2022-08-30T01:28:27.635Z,100817.44
2022-08-30T01:33:24.773Z,100804.03
2022-08-30T01:38:24.866Z,100814.19
2022-08-30T01:43:21.259Z,100807.25
2022-08-30T01:48:17.806Z,100810.88
2022-08-30T01:53:14.289Z,100823.97
2022-08-30T01:58:10.881Z,100817.91
2022-08-30T02:03:07.627Z,100819.81
2022-08-30T02:08:04.753Z,100828.31
2022-08-30T02:13:01.276Z,100830.41
2022-08-30T02:17:57.645Z,100825.72
2022-08-30T02:23:01.220Z,100834.16
2022-08-30T02:27:57.789Z,100837.09
2022-08-30T02:32:54.140Z,100843.03
2022-08-30T02:37:50.510Z,100843.69
2022-08-30T02:42:47.016Z,100843.69
2022-08-30T02:47:46.835Z,100847.06
2022-08-30T02:52:45.297Z,100846.94
2022-08-30T02:57:45.073Z,100845.97
2022-08-30T03:02:42.104Z,100849.50
2022-08-30T03:07:39.520Z,100848.06
2022-08-30T03:12:36.150Z,100834.94
2022-08-30T03:17:32.574Z,100840.28
2022-08-30T03:22:29.566Z,100830.13
2022-08-30T03:27:26.542Z,100826.88
2022-08-30T03:32:23.910Z,100827.84
2022-08-30T03:37:24.390Z,100821.53
2022-08-30T03:42:24.819Z,100831.38
2022-08-30T03:47:21.494Z,100825.44
2022-08-30T03:52:17.854Z,100842.47
2022-08-30T03:57:19.672Z,100836.53
2022-08-30T04:02:16.771Z,100836.78
2022-08-30T04:07:13.160Z,100835.25
2022-08-30T04:12:09.538Z,100828.31
2022-08-30T04:17:06.273Z,100830.97
2022-08-30T04:22:02.770Z,100833.19
2022-08-30T04:26:59.134Z,100838.97
2022-08-30T04:31:55.679Z,100830.47
2022-08-30T04:36:52.332Z,100839.19
2022-08-30T04:41:49.161Z,100838.88
2022-08-30T04:46:45.618Z,100847.63
2022-08-30T04:51:42.035Z,100851.41
2022-08-30T04:56:38.393Z,100856.63
2022-08-30T05:01:36.754Z,100856.34
2022-08-30T05:06:42.450Z,100864.84
2022-08-30T05:11:38.904Z,100867.00
2022-08-30T05:16:35.787Z,100857.88
2022-08-30T05:21:32.286Z,100872.09
2022-08-30T05:26:31.549Z,100872.81
2022-08-30T05:31:34.641Z,100882.75
2022-08-30T05:36:34.543Z,100879.19
2022-08-30T05:41:30.917Z,100872.34
2022-08-30T05:51:37.388Z,100869.06
2022-08-30T05:56:42.376Z,100868.72
2022-08-30T06:01:42.050Z,100876.19
2022-08-30T06:06:40.442Z,100869.47
2022-08-30T06:11:37.022Z,100883.09
2022-08-30T06:16:35.565Z,100882.31
2022-08-30T06:21:37.953Z,100897.59
2022-08-30T06:26:39.023Z,100902.78
2022-08-30T06:31:35.555Z,100891.88
2022-08-30T06:36:32.740Z,100895.38
2022-08-30T06:41:31.807Z,100889.41
2022-08-30T06:46:33.456Z,100898.88
2022-08-30T06:51:34.415Z,100900.84
2022-08-30T06:56:31.829Z,100914.41
2022-08-30T07:01:29.616Z,100899.91
2022-08-30T07:06:26.692Z,100899.59
2022-08-30T07:11:37.749Z,100892.09
2022-08-30T07:16:34.590Z,100883.75
2022-08-30T07:21:43.235Z,100878.56
2022-08-30T07:26:43.405Z,100889.88
2022-08-30T07:31:40.113Z,100894.28
2022-08-30T07:36:38.242Z,100900.25
2022-08-30T07:41:38.707Z,100900.25
2022-08-30T07:46:36.913Z,100907.56
2022-08-30T07:51:33.438Z,100907.94
2022-08-30T07:56:29.878Z,100907.50
2022-08-30T08:01:26.325Z,100909.75
2022-08-30T08:06:23.515Z,100916.53
2022-08-30T08:11:26.826Z,100922.75
2022-08-30T08:16:28.813Z,100921.34
2022-08-30T08:21:27.131Z,100934.13
2022-08-30T08:26:23.513Z,100923.47
2022-08-30T08:31:31.425Z,100927.75
2022-08-30T08:36:31.275Z,100930.63
2022-08-30T08:41:51.560Z,100932.41
2022-08-30T08:47:17.923Z,100941.81
2022-08-30T08:52:41.199Z,100929.44
2022-08-30T08:57:38.075Z,100934.03
2022-08-30T09:02:47.601Z,100924.94
2022-08-30T09:07:50.129Z,100924.25
2022-08-30T09:12:46.860Z,100919.59
2022-08-30T09:18:19.846Z,100924.03
2022-08-30T09:23:16.327Z,100934.00
2022-08-30T09:28:16.219Z,100922.19
2022-08-30T09:33:20.420Z,100921.34
2022-08-30T09:38:20.751Z,100928.44
2022-08-30T09:43:17.117Z,100922.97
2022-08-30T09:48:29.188Z,100927.59
2022-08-30T09:53:34.396Z,100921.09
2022-08-30T09:58:53.628Z,100922.34
2022-08-30T10:04:05.544Z,100918.28
2022-08-30T10:09:13.053Z,100920.53
2022-08-30T10:14:30.603Z,100913.50
2022-08-30T10:19:33.173Z,100902.38
2022-08-30T10:24:37.816Z,100906.41
2022-08-30T10:29:42.273Z,100912.50
2022-08-30T10:34:46.317Z,100898.16
2022-08-30T10:39:48.887Z,100903.75
2022-08-30T10:44:50.867Z,100908.03
2022-08-30T10:49:49.494Z,100905.34
2022-08-30T10:54:59.808Z,100897.47
2022-08-30T11:00:27.303Z,100898.78
2022-08-30T11:05:41.945Z,100909.19
2022-08-30T11:10:50.678Z,100901.13
2022-08-30T11:16:10.388Z,100893.34
2022-08-30T11:21:25.290Z,100888.94
2022-08-30T11:26:49.935Z,100890.09
2022-08-30T11:31:46.805Z,100891.81
2022-08-30T11:36:46.202Z,100888.97
2022-08-30T11:41:48.272Z,100885.22
2022-08-30T11:46:45.523Z,100880.91
2022-08-30T11:51:58.249Z,100882.50
2022-08-30T11:57:10.940Z,100877.13
2022-08-30T12:02:08.057Z,100879.22
2022-08-30T12:07:08.502Z,100875.09
2022-08-30T12:12:12.432Z,100879.59
2022-08-30T12:17:40.352Z,100859.69
2022-08-30T12:22:38.011Z,100865.25
2022-08-30T12:27:34.354Z,100858.16
2022-08-30T12:32:32.962Z,100854.09
2022-08-30T12:37:33.600Z,100849.97
2022-08-30T12:42:33.516Z,100844.16
2022-08-30T12:47:56.052Z,100845.81
2022-08-30T12:53:14.288Z,100847.59
2022-08-30T12:58:13.947Z,100840.38
2022-08-30T13:03:31.995Z,100840.72
2022-08-30T13:08:37.147Z,100834.50
2022-08-30T13:13:41.395Z,100834.28
2022-08-30T13:18:40.660Z,100827.44
2022-08-30T13:23:37.940Z,100827.09
2022-08-30T13:29:00.337Z,100824.34
2022-08-30T13:33:57.663Z,100810.38
2022-08-30T13:38:54.024Z,100819.13
2022-08-30T13:54:34.973Z,100817.03
2022-08-30T13:59:33.302Z,100826.94
2022-08-30T14:04:29.789Z,100819.38
2022-08-30T14:09:26.600Z,100814.31
2022-08-30T14:14:41.481Z,100808.81
2022-08-30T14:19:39.711Z,100804.34
2022-08-30T14:24:36.031Z,100804.00
2022-08-30T14:29:32.727Z,100806.22
2022-08-30T14:34:29.317Z,100817.06
2022-08-30T14:39:26.153Z,100804.53
2022-08-30T14:44:23.230Z,100803.38
2022-08-30T14:49:20.376Z,100800.72
2022-08-30T14:54:17.797Z,100795.75
2022-08-30T14:59:15.155Z,100793.97
2022-08-30T15:04:14.880Z,100789.72
2022-08-30T15:09:14.315Z,100788.38
2022-08-30T15:14:16.004Z,100795.03
2022-08-30T15:19:12.847Z,100789.88
2022-08-30T15:24:13.052Z,100792.91
2022-08-30T15:29:14.894Z,100789.38
2022-08-30T15:34:14.401Z,100780.22
2022-08-30T15:39:12.746Z,100779.78
2022-08-30T15:44:11.560Z,100771.59
2022-08-30T15:49:13.038Z,100769.00
2022-08-30T15:54:12.238Z,100765.53
2022-08-30T15:59:10.199Z,100762.59
2022-08-30T16:04:07.180Z,100757.88
2022-08-30T16:09:06.626Z,100752.84
2022-08-30T16:14:04.884Z,100757.38
2022-08-30T16:19:01.510Z,100748.72
2022-08-30T16:24:00.213Z,100743.94
2022-08-30T16:28:57.160Z,100729.19
2022-08-30T16:33:54.946Z,100729.38
2022-08-30T16:38:57.988Z,100735.28
2022-08-30T16:43:55.635Z,100719.63
2022-08-30T16:48:52.380Z,100713.97
2022-08-30T16:53:49.846Z,100716.28
2022-08-30T16:58:48.253Z,100713.81
2022-08-30T17:03:44.633Z,100714.78
2022-08-30T17:08:42.861Z,100723.03
2022-08-30T17:13:39.536Z,100733.69
2022-08-30T17:18:35.993Z,100723.88
2022-08-30T17:23:33.980Z,100729.50
2022-08-30T17:28:30.608Z,100733.44
2022-08-30T17:33:27.217Z,100733.59
2022-08-30T17:38:23.727Z,100734.06
2022-08-30T17:43:20.131Z,100740.25
2022-08-30T17:48:17.170Z,100756.31
2022-08-30T17:53:13.610Z,100758.41
2022-08-30T17:58:09.961Z,100761.00
2022-08-30T18:03:06.435Z,100765.03
2022-08-30T18:08:03.199Z,100771.22
2022-08-30T18:12:59.772Z,100760.75
2022-08-30T18:17:56.106Z,100773.75
2022-08-30T18:22:52.521Z,100768.69
2022-08-30T18:27:57.193Z,100776.81
2022-08-30T18:32:55.407Z,100782.56
2022-08-30T18:37:52.447Z,100778.66
2022-08-30T18:42:49.009Z,100781.25
2022-08-30T18:47:45.457Z,100785.41
2022-08-30T18:52:42.071Z,100779.28
2022-08-30T18:57:41.673Z,100782.41
2022-08-30T19:02:39.027Z,100788.47
2022-08-30T19:07:40.474Z,100787.00
2022-08-30T19:12:36.853Z,100793.72
2022-08-30T19:17:33.673Z,100800.66
2022-08-30T19:22:36.079Z,100794.84
2022-08-30T19:27:47.638Z,100794.00
2022-08-30T19:32:47.771Z,100796.16
2022-08-30T19:37:44.991Z,100796.50
2022-08-30T19:42:45.951Z,100804.91
2022-08-30T19:47:42.922Z,100807.13
2022-08-30T19:52:40.135Z,100807.22
2022-08-30T19:57:37.130Z,100798.53
2022-08-30T20:02:34.952Z,100802.63
2022-08-30T20:07:35.408Z,100807.53
2022-08-30T20:12:34.324Z,100795.91
2022-08-30T20:17:42.451Z,100796.13
2022-08-30T20:22:50.967Z,100794.53
2022-08-30T20:27:50.644Z,100798.00
2022-08-30T20:32:47.101Z,100798.47
2022-08-30T20:37:44.338Z,100804.66
2022-08-30T20:42:43.622Z,100798.94
2022-08-30T20:47:41.016Z,100799.41
2022-08-30T20:52:37.457Z,100793.72
2022-08-30T20:57:34.041Z,100800.19
2022-08-30T21:02:31.482Z,100813.97
2022-08-30T21:07:28.180Z,100812.81
2022-08-30T21:12:25.132Z,100804.38
2022-08-30T21:17:21.528Z,100823.03
2022-08-30T21:22:17.873Z,100815.16
2022-08-30T21:27:15.279Z,100833.59
2022-08-30T21:32:11.672Z,100828.53
2022-08-30T21:37:08.095Z,100830.16
2022-08-30T21:42:04.521Z,100822.38
2022-08-30T21:47:00.943Z,100819.00
2022-08-30T21:51:57.321Z,100820.69
2022-08-30T21:57:00.567Z,100819.16
2022-08-30T22:01:57.536Z,100824.97
2022-08-30T22:06:54.141Z,100831.22
2022-08-30T22:11:51.056Z,100828.00
2022-08-30T22:16:48.887Z,100832.69
2022-08-30T22:21:47.878Z,100842.06
2022-08-30T22:26:45.901Z,100850.06
2022-08-30T22:31:42.292Z,100860.41
2022-08-30T22:36:38.914Z,100862.03
2022-08-30T22:41:36.475Z,100860.94
2022-08-30T22:46:34.289Z,100861.81
2022-08-30T22:51:31.475Z,100869.16
2022-08-30T22:56:28.666Z,100872.78
2022-08-30T23:01:34.629Z,100868.25
2022-08-30T23:06:31.584Z,100872.22
2022-08-30T23:11:27.948Z,100866.44
2022-08-30T23:16:26.965Z,100859.66
2022-08-30T23:21:26.691Z,100862.78
2022-08-30T23:26:42.016Z,100867.31
2022-08-30T23:31:56.997Z,100871.03
2022-08-30T23:37:12.205Z,100868.34
2022-08-30T23:42:27.095Z,100871.06
2022-08-30T23:47:42.062Z,100884.69
2022-08-30T23:52:57.375Z,100882.16
2022-08-30T23:58:12.343Z,100877.06
